createdAt,value
2018-01-11T00:00:08.608Z,1005.60
2018-01-11T04:02:16.564Z,1006.77
2018-01-11T04:03:11.686Z,1006.77
2018-01-11T04:04:11.598Z,1006.75
2018-01-11T04:05:11.535Z,1006.79
2018-01-11T04:06:11.466Z,1006.76
2018-01-11T04:07:11.361Z,1006.81
2018-01-11T04:08:11.277Z,1006.80
2018-01-11T04:09:11.198Z,1006.78
2018-01-11T04:10:11.121Z,1006.80
2018-01-11T04:11:11.072Z,1006.83
2018-01-11T04:12:10.957Z,1006.84
2018-01-11T04:13:10.885Z,1006.84
2018-01-11T04:14:10.795Z,1006.87
2018-01-11T04:15:10.719Z,1006.85
2018-01-11T04:16:10.641Z,1006.85
2018-01-11T04:17:10.563Z,1006.86
2018-01-11T04:18:10.477Z,1006.85
2018-01-11T04:19:10.393Z,1006.85
2018-01-11T04:20:10.318Z,1006.86
2018-01-11T04:21:10.246Z,1006.87
2018-01-11T04:22:10.188Z,1006.83
2018-01-11T04:23:10.073Z,1006.83
2018-01-11T04:24:09.993Z,1006.82
2018-01-11T04:25:09.912Z,1006.83
2018-01-11T04:26:09.834Z,1006.83
2018-01-11T04:27:09.753Z,1006.83
2018-01-11T04:28:09.688Z,1006.84
2018-01-11T04:29:09.592Z,1006.89
2018-01-11T04:30:09.517Z,1006.85
2018-01-11T04:31:09.438Z,1006.85
2018-01-11T04:32:09.357Z,1006.89
2018-01-11T04:33:09.298Z,1006.89
2018-01-11T04:34:09.195Z,1006.89
2018-01-11T04:35:09.112Z,1006.90
2018-01-11T04:36:09.028Z,1006.88
2018-01-11T04:37:08.955Z,1006.85
2018-01-11T04:38:08.869Z,1006.90
2018-01-11T04:39:08.791Z,1006.89
2018-01-11T04:40:08.717Z,1006.89
2018-01-11T04:41:08.634Z,1006.94
2018-01-11T04:42:08.557Z,1006.91
2018-01-11T04:43:08.468Z,1006.87
2018-01-11T04:44:08.424Z,1006.89
2018-01-11T04:45:08.352Z,1006.88
2018-01-11T04:46:08.237Z,1006.89
2018-01-11T04:47:08.146Z,1006.90
2018-01-11T04:48:08.072Z,1006.90
2018-01-11T04:49:08.062Z,1006.94
2018-01-11T04:50:07.915Z,1006.91
2018-01-11T04:51:07.825Z,1006.96
2018-01-11T04:52:07.753Z,1006.94
2018-01-11T04:53:07.673Z,1006.96
2018-01-11T04:54:07.590Z,1006.99
2018-01-11T04:55:07.533Z,1006.98
2018-01-11T04:56:07.435Z,1007.02
2018-01-11T04:57:07.346Z,1007.06
2018-01-11T04:58:07.258Z,1007.02
2018-01-11T04:59:07.177Z,1007.01
2018-01-11T05:00:07.127Z,1007.03
2018-01-11T05:01:07.027Z,1007.07
2018-01-11T05:02:06.942Z,1007.06
2018-01-11T05:03:06.866Z,1007.05
2018-01-11T05:04:06.784Z,1007.07
2018-01-11T05:05:06.700Z,1007.09
2018-01-11T05:06:06.617Z,1007.07
2018-01-11T05:07:06.544Z,1007.10
2018-01-11T05:08:06.645Z,1007.10
2018-01-11T05:09:06.379Z,1007.09
2018-01-11T05:10:06.296Z,1007.11
2018-01-11T05:11:06.245Z,1007.15
2018-01-11T05:12:06.129Z,1007.14
2018-01-11T05:13:06.054Z,1007.14
2018-01-11T05:14:05.977Z,1007.15
2018-01-11T05:15:05.891Z,1007.16
2018-01-11T05:16:05.817Z,1007.17
2018-01-11T05:17:05.731Z,1007.18
2018-01-11T05:18:05.644Z,1007.22
2018-01-11T05:19:05.567Z,1007.24
2018-01-11T05:20:05.478Z,1007.25
2018-01-11T05:21:05.408Z,1007.23
2018-01-11T05:22:05.351Z,1007.28
2018-01-11T05:23:05.248Z,1007.29
2018-01-11T05:24:05.157Z,1007.30
2018-01-11T05:25:05.082Z,1007.31
2018-01-11T05:26:04.995Z,1007.34
2018-01-11T05:27:04.913Z,1007.30
2018-01-11T05:28:04.840Z,1007.35
2018-01-11T05:29:04.752Z,1007.29
2018-01-11T05:30:04.667Z,1007.32
2018-01-11T05:31:04.585Z,1007.31
2018-01-11T05:32:04.505Z,1007.32
2018-01-11T05:33:04.464Z,1007.32
2018-01-11T05:34:04.350Z,1007.34
2018-01-11T05:35:04.320Z,1007.37
2018-01-11T05:36:04.185Z,1007.37
2018-01-11T05:37:04.097Z,1007.40
2018-01-11T05:38:04.018Z,1007.40
2018-01-11T05:39:03.939Z,1007.43
2018-01-11T05:40:03.869Z,1007.39
2018-01-11T05:41:03.778Z,1007.44
2018-01-11T05:42:03.697Z,1007.44
2018-01-11T05:43:03.610Z,1007.46
2018-01-11T05:44:03.570Z,1007.46
2018-01-11T05:45:03.446Z,1007.47
2018-01-11T05:46:03.378Z,1007.51
2018-01-11T05:47:03.283Z,1007.51
2018-01-11T05:48:03.210Z,1007.53
2018-01-11T05:49:03.128Z,1007.58
2018-01-11T05:50:03.054Z,1007.56
2018-01-11T05:51:02.965Z,1007.61
2018-01-11T05:52:02.878Z,1007.65
2018-01-11T05:53:02.795Z,1007.62
2018-01-11T05:54:02.713Z,1007.67
2018-01-11T05:55:02.669Z,1007.69
2018-01-11T05:56:02.550Z,1007.68
2018-01-11T05:57:02.480Z,1007.69
2018-01-11T05:58:02.387Z,1007.71
2018-01-11T05:59:02.306Z,1007.71
2018-01-11T06:00:02.257Z,1007.72
2018-01-11T06:01:02.153Z,1007.76
2018-01-11T06:02:02.059Z,1007.78
2018-01-11T06:03:01.989Z,1007.79
2018-01-11T06:04:01.905Z,1007.74
2018-01-11T06:05:01.823Z,1007.74
2018-01-11T06:06:01.770Z,1007.73
2018-01-11T06:07:01.660Z,1007.72
2018-01-11T06:08:01.578Z,1007.76
2018-01-11T06:09:01.489Z,1007.72
2018-01-11T06:10:01.409Z,1007.77
2018-01-11T06:11:01.330Z,1007.82
2018-01-11T06:12:01.252Z,1007.83
2018-01-11T06:13:01.173Z,1007.85
2018-01-11T06:14:01.082Z,1007.85
2018-01-11T06:15:01.011Z,1007.88
2018-01-11T06:16:00.923Z,1007.90
2018-01-11T06:17:00.878Z,1007.92
2018-01-11T06:18:00.765Z,1007.95
2018-01-11T06:19:00.685Z,1007.93
2018-01-11T06:20:00.598Z,1007.97
2018-01-11T06:21:00.528Z,1008.01
2018-01-11T06:22:00.447Z,1008.02
2018-01-11T06:23:00.362Z,1008.03
2018-01-11T06:24:00.271Z,1008.07
2018-01-11T06:25:00.201Z,1008.10
2018-01-11T06:26:00.116Z,1008.12
2018-01-11T06:27:00.047Z,1008.18
2018-01-11T06:27:59.977Z,1008.15
2018-01-11T06:28:59.866Z,1008.19
2018-01-11T06:29:59.783Z,1008.17
2018-01-11T06:30:59.712Z,1008.20
2018-01-11T06:31:59.637Z,1008.22
2018-01-11T06:32:59.545Z,1008.20
2018-01-11T06:33:59.471Z,1008.22
2018-01-11T06:34:59.379Z,1008.26
2018-01-11T06:35:59.299Z,1008.23
2018-01-11T06:36:59.222Z,1008.26
2018-01-11T06:37:59.134Z,1008.24
2018-01-11T06:38:59.064Z,1008.28
2018-01-11T06:39:58.975Z,1008.31
2018-01-11T06:40:58.899Z,1008.31
2018-01-11T06:41:58.814Z,1008.32
2018-01-11T06:42:58.737Z,1008.33
2018-01-11T06:43:58.676Z,1008.39
2018-01-11T06:44:58.577Z,1008.37
2018-01-11T06:45:58.495Z,1008.40
2018-01-11T06:46:58.413Z,1008.36
2018-01-11T06:47:58.332Z,1008.39
2018-01-11T06:48:58.254Z,1008.40
2018-01-11T06:49:58.169Z,1008.43
2018-01-11T06:50:58.083Z,1008.40
2018-01-11T06:51:58.004Z,1008.44
2018-01-11T06:52:57.923Z,1008.47
2018-01-11T06:53:57.847Z,1008.52
2018-01-11T06:54:57.795Z,1008.53
2018-01-11T06:55:57.679Z,1008.52
2018-01-11T06:56:57.597Z,1008.53
2018-01-11T06:57:57.525Z,1008.53
2018-01-11T06:58:57.444Z,1008.59
2018-01-11T06:59:57.359Z,1008.58
2018-01-11T07:00:57.290Z,1008.61
2018-01-11T07:01:57.203Z,1008.58
2018-01-11T07:02:57.116Z,1008.60
2018-01-11T07:03:57.032Z,1008.58
2018-01-11T07:04:56.954Z,1008.58
2018-01-11T07:05:56.898Z,1008.58
2018-01-11T07:06:56.804Z,1008.60
2018-01-11T07:07:56.718Z,1008.60
2018-01-11T07:08:56.628Z,1008.61
2018-01-11T07:09:56.556Z,1008.62
2018-01-11T07:10:56.467Z,1008.62
2018-01-11T07:11:56.396Z,1008.65
2018-01-11T07:12:56.305Z,1008.67
2018-01-11T07:13:56.232Z,1008.67
2018-01-11T07:14:56.147Z,1008.68
2018-01-11T07:15:56.075Z,1008.69
2018-01-11T07:16:56.020Z,1008.70
2018-01-11T07:17:55.907Z,1008.70
2018-01-11T07:18:55.829Z,1008.74
2018-01-11T07:19:55.745Z,1008.76
2018-01-11T07:20:55.662Z,1008.76
2018-01-11T07:21:55.579Z,1008.82
2018-01-11T07:22:55.548Z,1008.79
2018-01-11T07:23:55.416Z,1008.82
2018-01-11T07:24:55.344Z,1008.84
2018-01-11T07:25:55.258Z,1008.85
2018-01-11T07:26:55.197Z,1008.87
2018-01-11T07:27:55.143Z,1008.84
2018-01-11T07:28:55.018Z,1008.84
2018-01-11T07:29:54.938Z,1008.83
2018-01-11T07:30:54.860Z,1008.81
2018-01-11T07:31:54.768Z,1008.83
2018-01-11T07:32:54.697Z,1008.83
2018-01-11T07:33:54.618Z,1008.85
2018-01-11T07:34:54.540Z,1008.88
2018-01-11T07:35:54.457Z,1008.87
2018-01-11T07:36:54.367Z,1008.91
2018-01-11T07:37:54.290Z,1008.87
2018-01-11T07:38:54.237Z,1008.91
2018-01-11T07:39:54.127Z,1008.92
2018-01-11T07:40:54.048Z,1008.94
2018-01-11T07:41:53.969Z,1008.97
2018-01-11T07:42:53.890Z,1008.97
2018-01-11T07:43:53.808Z,1008.94
2018-01-11T07:44:53.731Z,1008.98
2018-01-11T07:45:53.649Z,1009.05
2018-01-11T07:46:53.564Z,1009.05
2018-01-11T07:47:53.481Z,1009.06
2018-01-11T07:48:53.401Z,1009.08
2018-01-11T07:49:53.348Z,1009.08
2018-01-11T07:50:53.239Z,1009.09
2018-01-11T07:51:53.166Z,1009.09
2018-01-11T07:52:53.083Z,1009.12
2018-01-11T07:53:53.005Z,1009.13
2018-01-11T07:54:52.917Z,1009.12
2018-01-11T07:55:52.846Z,1009.16
2018-01-11T07:56:52.755Z,1009.18
2018-01-11T07:57:52.681Z,1009.17
2018-01-11T07:58:52.600Z,1009.18
2018-01-11T07:59:52.517Z,1009.19
2018-01-11T08:00:52.458Z,1009.20
2018-01-11T08:01:52.359Z,1009.23
2018-01-11T08:02:52.282Z,1009.25
2018-01-11T08:03:52.189Z,1009.24
2018-01-11T08:04:52.113Z,1009.28
2018-01-11T08:05:52.040Z,1009.24
2018-01-11T08:06:51.957Z,1009.28
2018-01-11T08:07:51.868Z,1009.32
2018-01-11T08:08:51.791Z,1009.36
2018-01-11T08:09:51.707Z,1009.35
2018-01-11T08:10:51.631Z,1009.37
2018-01-11T08:11:51.602Z,1009.40
2018-01-11T08:12:51.475Z,1009.39
2018-01-11T08:13:51.385Z,1009.40
2018-01-11T08:14:51.309Z,1009.45
2018-01-11T08:15:51.230Z,1009.43
2018-01-11T08:16:51.160Z,1009.51
2018-01-11T08:17:51.063Z,1009.50
2018-01-11T08:18:50.984Z,1009.53
2018-01-11T08:19:50.902Z,1009.54
2018-01-11T08:20:50.821Z,1009.51
2018-01-11T08:21:50.741Z,1009.52
2018-01-11T08:22:50.690Z,1009.52
2018-01-11T08:23:50.578Z,1009.56
2018-01-11T08:24:50.508Z,1009.58
2018-01-11T08:25:50.427Z,1009.57
2018-01-11T08:26:50.349Z,1009.59
2018-01-11T08:27:50.290Z,1009.56
2018-01-11T08:28:50.184Z,1009.60
2018-01-11T08:29:50.099Z,1009.63
2018-01-11T08:30:50.022Z,1009.64
2018-01-11T08:31:49.937Z,1009.68
2018-01-11T08:32:49.861Z,1009.70
2018-01-11T08:33:49.780Z,1009.71
2018-01-11T08:34:49.757Z,1009.75
2018-01-11T08:35:49.614Z,1009.77
2018-01-11T08:36:49.542Z,1009.79
2018-01-11T08:37:49.459Z,1009.80
2018-01-11T08:38:49.411Z,1009.80
2018-01-11T08:39:49.295Z,1009.84
2018-01-11T08:40:49.220Z,1009.83
2018-01-11T08:41:49.131Z,1009.82
2018-01-11T08:42:49.052Z,1009.81
2018-01-11T08:43:48.972Z,1009.87
2018-01-11T08:44:48.892Z,1009.87
2018-01-11T08:45:48.814Z,1009.86
2018-01-11T08:46:48.735Z,1009.88
2018-01-11T08:47:48.657Z,1009.92
2018-01-11T08:48:48.575Z,1009.96
2018-01-11T08:49:48.525Z,1009.93
2018-01-11T08:50:48.411Z,1009.96
2018-01-11T08:51:48.329Z,1009.94
2018-01-11T08:52:48.251Z,1009.97
2018-01-11T08:53:48.169Z,1009.97
2018-01-11T08:54:48.090Z,1009.99
2018-01-11T08:55:48.013Z,1010.01
2018-01-11T08:56:47.936Z,1009.99
2018-01-11T08:57:47.848Z,1009.98
2018-01-11T08:58:47.766Z,1010.02
2018-01-11T08:59:47.693Z,1009.97
2018-01-11T09:00:47.636Z,1010.02
2018-01-11T09:01:47.537Z,1010.10
2018-01-11T09:02:47.454Z,1010.09
2018-01-11T09:03:47.373Z,1010.09
2018-01-11T09:04:47.288Z,1010.09
2018-01-11T09:05:47.236Z,1010.08
2018-01-11T09:06:47.134Z,1010.12
2018-01-11T09:07:47.053Z,1010.10
2018-01-11T09:08:46.971Z,1010.15
2018-01-11T09:09:46.884Z,1010.18
2018-01-11T09:10:46.803Z,1010.15
2018-01-11T09:11:46.727Z,1010.18
2018-01-11T09:12:46.651Z,1010.17
2018-01-11T09:13:46.565Z,1010.19
2018-01-11T09:14:46.492Z,1010.20
2018-01-11T09:15:46.409Z,1010.20
2018-01-11T09:16:46.352Z,1010.24
2018-01-11T09:17:46.246Z,1010.22
2018-01-11T09:18:46.169Z,1010.24
2018-01-11T09:19:46.091Z,1010.26
2018-01-11T09:20:46.013Z,1010.28
2018-01-11T09:21:45.934Z,1010.32
2018-01-11T09:22:45.847Z,1010.31
2018-01-11T09:23:45.772Z,1010.36
2018-01-11T09:24:45.688Z,1010.38
2018-01-11T09:25:45.615Z,1010.40
2018-01-11T09:26:45.534Z,1010.40
2018-01-11T09:27:45.474Z,1010.41
2018-01-11T09:28:45.379Z,1010.41
2018-01-11T09:29:45.294Z,1010.46
2018-01-11T09:30:45.214Z,1010.46
2018-01-11T09:31:45.129Z,1010.52
2018-01-11T09:32:45.056Z,1010.51
2018-01-11T09:33:44.977Z,1010.55
2018-01-11T09:34:44.892Z,1010.55
2018-01-11T09:35:44.815Z,1010.60
2018-01-11T09:36:44.736Z,1010.63
2018-01-11T09:37:44.649Z,1010.66
2018-01-11T09:38:44.598Z,1010.68
2018-01-11T09:39:44.498Z,1010.66
2018-01-11T09:40:44.421Z,1010.72
2018-01-11T09:41:44.338Z,1010.70
2018-01-11T09:42:44.252Z,1010.71
2018-01-11T09:43:44.196Z,1010.72
2018-01-11T09:44:44.098Z,1010.73
2018-01-11T09:45:44.069Z,1010.79
2018-01-11T09:46:43.942Z,1010.80
2018-01-11T09:47:43.861Z,1010.77
2018-01-11T09:48:43.809Z,1010.82
2018-01-11T09:49:43.696Z,1010.84
2018-01-11T09:50:43.622Z,1010.83
2018-01-11T09:51:43.539Z,1010.82
2018-01-11T09:52:43.464Z,1010.87
2018-01-11T09:53:43.378Z,1010.86
2018-01-11T09:54:43.309Z,1010.86
2018-01-11T09:55:43.219Z,1010.87
2018-01-11T09:56:43.146Z,1010.91
2018-01-11T09:57:43.068Z,1010.90
2018-01-11T09:58:42.990Z,1010.90
2018-01-11T09:59:42.938Z,1010.87
2018-01-11T10:00:42.825Z,1010.90
2018-01-11T10:01:42.747Z,1010.86
2018-01-11T10:02:42.671Z,1010.86
2018-01-11T10:03:42.587Z,1010.88
2018-01-11T10:04:42.517Z,1010.89
2018-01-11T10:05:42.428Z,1010.90
2018-01-11T10:06:42.354Z,1010.90
2018-01-11T10:07:42.280Z,1010.89
2018-01-11T10:08:42.197Z,1010.86
2018-01-11T10:09:42.114Z,1010.87
2018-01-11T10:10:42.055Z,1010.88
2018-01-11T10:11:41.974Z,1010.90
2018-01-11T10:12:41.882Z,1010.89
2018-01-11T10:13:41.797Z,1010.92
2018-01-11T10:14:41.722Z,1010.89
2018-01-11T10:15:41.667Z,1010.87
2018-01-11T10:16:41.564Z,1010.90
2018-01-11T10:17:41.483Z,1010.93
2018-01-11T10:18:41.399Z,1010.88
2018-01-11T10:19:41.322Z,1010.91
2018-01-11T10:20:41.270Z,1010.93
2018-01-11T10:21:41.172Z,1010.94
2018-01-11T10:22:41.081Z,1010.93
2018-01-11T10:23:41.013Z,1010.93
2018-01-11T10:24:40.925Z,1010.94
2018-01-11T10:25:40.855Z,1010.92
2018-01-11T10:26:40.769Z,1010.93
2018-01-11T10:27:40.697Z,1010.94
2018-01-11T10:28:40.615Z,1010.96
2018-01-11T10:29:40.539Z,1010.98
2018-01-11T10:30:40.467Z,1011.02
2018-01-11T10:31:40.407Z,1010.99
2018-01-11T10:32:40.292Z,1011.03
2018-01-11T10:33:40.214Z,1011.02
2018-01-11T10:34:40.135Z,1011.06
2018-01-11T10:35:40.058Z,1011.03
2018-01-11T10:36:39.988Z,1011.03
2018-01-11T10:37:39.908Z,1011.06
2018-01-11T10:38:39.828Z,1011.07
2018-01-11T10:39:39.744Z,1011.07
2018-01-11T10:40:39.666Z,1011.10
2018-01-11T10:41:39.584Z,1011.13
2018-01-11T10:42:39.531Z,1011.13
2018-01-11T10:43:39.432Z,1011.11
2018-01-11T10:44:39.346Z,1011.14
2018-01-11T10:45:39.277Z,1011.16
2018-01-11T10:46:39.188Z,1011.13
2018-01-11T10:47:39.108Z,1011.18
2018-01-11T10:48:39.034Z,1011.20
2018-01-11T10:49:38.960Z,1011.21
2018-01-11T10:50:38.881Z,1011.19
2018-01-11T10:51:38.827Z,1011.19
2018-01-11T10:52:38.728Z,1011.20
2018-01-11T10:53:38.672Z,1011.23
2018-01-11T10:54:38.566Z,1011.22
2018-01-11T10:55:38.486Z,1011.26
2018-01-11T10:56:38.402Z,1011.22
2018-01-11T10:57:38.319Z,1011.19
2018-01-11T10:58:38.242Z,1011.22
2018-01-11T10:59:38.170Z,1011.22
2018-01-11T11:00:38.084Z,1011.25
2018-01-11T11:01:38.014Z,1011.21
2018-01-11T11:02:37.929Z,1011.20
2018-01-11T11:03:37.856Z,1011.22
2018-01-11T11:04:37.800Z,1011.22
2018-01-11T11:05:37.697Z,1011.18
2018-01-11T11:06:37.611Z,1011.18
2018-01-11T11:07:37.542Z,1011.21
2018-01-11T11:08:37.457Z,1011.22
2018-01-11T11:09:37.379Z,1011.22
2018-01-11T11:10:37.301Z,1011.25
2018-01-11T11:11:37.229Z,1011.28
2018-01-11T11:12:37.148Z,1011.26
2018-01-11T11:13:37.072Z,1011.30
2018-01-11T11:14:36.985Z,1011.29
2018-01-11T11:15:36.940Z,1011.32
2018-01-11T11:16:36.828Z,1011.33
2018-01-11T11:17:36.754Z,1011.33
2018-01-11T11:18:36.679Z,1011.30
2018-01-11T11:19:36.602Z,1011.34
2018-01-11T11:20:36.513Z,1011.32
2018-01-11T11:21:36.447Z,1011.33
2018-01-11T11:22:36.355Z,1011.32
2018-01-11T11:23:36.282Z,1011.30
2018-01-11T11:24:36.210Z,1011.29
2018-01-11T11:25:36.131Z,1011.32
2018-01-11T11:26:36.077Z,1011.34
2018-01-11T11:27:35.974Z,1011.32
2018-01-11T11:28:35.888Z,1011.32
2018-01-11T11:29:35.812Z,1011.28
2018-01-11T11:30:35.747Z,1011.30
2018-01-11T11:31:35.693Z,1011.29
2018-01-11T11:32:35.581Z,1011.28
2018-01-11T11:33:35.500Z,1011.30
2018-01-11T11:34:35.420Z,1011.28
2018-01-11T11:35:35.344Z,1011.26
2018-01-11T11:36:35.268Z,1011.27
2018-01-11T11:37:35.189Z,1011.26
2018-01-11T11:38:35.113Z,1011.28
2018-01-11T11:39:35.035Z,1011.28
2018-01-11T11:40:34.948Z,1011.26
2018-01-11T11:41:34.914Z,1011.28
2018-01-11T11:42:34.829Z,1011.30
2018-01-11T11:43:34.723Z,1011.30
2018-01-11T11:44:34.641Z,1011.34
2018-01-11T11:45:34.567Z,1011.35
2018-01-11T11:46:34.478Z,1011.39
2018-01-11T11:47:34.405Z,1011.37
2018-01-11T11:48:34.329Z,1011.41
2018-01-11T11:49:34.252Z,1011.37
2018-01-11T11:50:34.169Z,1011.37
2018-01-11T11:51:34.102Z,1011.34
2018-01-11T11:52:34.020Z,1011.36
2018-01-11T11:53:33.966Z,1011.32
2018-01-11T11:54:33.857Z,1011.33
2018-01-11T11:55:33.804Z,1011.32
2018-01-11T11:56:33.706Z,1011.30
2018-01-11T11:57:33.632Z,1011.31
2018-01-11T11:58:33.544Z,1011.26
2018-01-11T11:59:33.474Z,1011.26
2018-01-11T12:00:33.389Z,1011.22
2018-01-11T12:01:33.306Z,1011.24
2018-01-11T12:02:33.237Z,1011.28
2018-01-11T12:03:33.164Z,1011.31
2018-01-11T12:04:33.104Z,1011.30
2018-01-11T12:05:33.002Z,1011.32
2018-01-11T12:06:32.924Z,1011.32
2018-01-11T12:07:32.837Z,1011.31
2018-01-11T12:08:32.762Z,1011.31
2018-01-11T12:09:32.692Z,1011.34
2018-01-11T12:10:32.610Z,1011.30
2018-01-11T12:11:32.528Z,1011.35
2018-01-11T12:12:32.452Z,1011.32
2018-01-11T12:13:32.370Z,1011.33
2018-01-11T12:14:32.295Z,1011.36
2018-01-11T12:15:32.246Z,1011.29
2018-01-11T12:16:32.189Z,1011.30
2018-01-11T12:17:32.055Z,1011.29
2018-01-11T12:18:31.975Z,1011.33
2018-01-11T12:19:31.892Z,1011.34
2018-01-11T12:20:31.818Z,1011.33
2018-01-11T12:21:31.739Z,1011.36
2018-01-11T12:22:31.663Z,1011.34
2018-01-11T12:23:31.578Z,1011.37
2018-01-11T12:24:31.508Z,1011.39
2018-01-11T12:25:31.430Z,1011.45
2018-01-11T12:26:31.378Z,1011.39
2018-01-11T12:27:31.265Z,1011.43
2018-01-11T12:28:31.192Z,1011.42
2018-01-11T12:29:31.114Z,1011.43
2018-01-11T12:30:31.040Z,1011.41
2018-01-11T12:31:30.960Z,1011.40
2018-01-11T12:32:30.876Z,1011.39
2018-01-11T12:33:30.790Z,1011.38
2018-01-11T12:34:30.715Z,1011.36
2018-01-11T12:35:30.637Z,1011.36
2018-01-11T12:36:30.563Z,1011.35
2018-01-11T12:37:30.507Z,1011.39
2018-01-11T12:38:30.404Z,1011.37
2018-01-11T12:39:30.320Z,1011.41
2018-01-11T12:40:30.250Z,1011.41
2018-01-11T12:41:30.163Z,1011.46
2018-01-11T12:42:30.120Z,1011.49
2018-01-11T12:43:30.012Z,1011.49
2018-01-11T12:44:29.930Z,1011.50
2018-01-11T12:45:29.858Z,1011.51
2018-01-11T12:46:29.779Z,1011.51
2018-01-11T12:47:29.695Z,1011.57
2018-01-11T12:48:29.614Z,1011.50
2018-01-11T12:49:29.545Z,1011.56
2018-01-11T12:50:29.466Z,1011.54
2018-01-11T12:51:29.379Z,1011.57
2018-01-11T12:52:29.303Z,1011.53
2018-01-11T12:53:29.253Z,1011.57
2018-01-11T12:54:29.157Z,1011.57
2018-01-11T12:55:29.077Z,1011.61
2018-01-11T12:56:28.998Z,1011.59
2018-01-11T12:57:28.918Z,1011.66
2018-01-11T12:58:28.839Z,1011.66
2018-01-11T12:59:28.763Z,1011.68
2018-01-11T13:00:28.690Z,1011.66
2018-01-11T13:01:28.607Z,1011.65
2018-01-11T13:02:28.526Z,1011.68
2018-01-11T13:03:28.458Z,1011.68
2018-01-11T13:04:28.396Z,1011.68
2018-01-11T13:05:28.289Z,1011.73
2018-01-11T13:06:28.217Z,1011.75
2018-01-11T13:07:28.145Z,1011.76
2018-01-11T13:08:28.060Z,1011.79
2018-01-11T13:09:27.987Z,1011.79
2018-01-11T13:10:27.906Z,1011.75
2018-01-11T13:11:27.826Z,1011.76
2018-01-11T13:12:27.749Z,1011.71
2018-01-11T13:13:27.676Z,1011.70
2018-01-11T13:14:27.599Z,1011.72
2018-01-11T13:15:27.548Z,1011.71
2018-01-11T13:16:27.445Z,1011.73
2018-01-11T13:17:27.359Z,1011.75
2018-01-11T13:18:27.284Z,1011.75
2018-01-11T13:19:27.211Z,1011.85
2018-01-11T13:20:27.131Z,1011.83
2018-01-11T13:21:27.055Z,1011.80
2018-01-11T13:22:26.971Z,1011.83
2018-01-11T13:23:26.900Z,1011.86
2018-01-11T13:24:26.821Z,1011.88
2018-01-11T13:25:26.737Z,1011.88
2018-01-11T13:26:26.708Z,1011.91
2018-01-11T13:27:26.591Z,1011.86
2018-01-11T13:28:26.512Z,1011.92
2018-01-11T13:29:26.434Z,1011.90
2018-01-11T13:30:26.350Z,1011.92
2018-01-11T13:31:26.278Z,1011.95
2018-01-11T13:32:26.227Z,1011.96
2018-01-11T13:33:26.124Z,1011.92
2018-01-11T13:34:26.047Z,1011.95
2018-01-11T13:35:25.997Z,1011.98
2018-01-11T13:36:25.883Z,1011.94
2018-01-11T13:37:25.841Z,1011.98
2018-01-11T13:38:25.726Z,1011.96
2018-01-11T13:39:25.656Z,1011.99
2018-01-11T13:40:25.577Z,1011.99
2018-01-11T13:41:25.502Z,1011.98
2018-01-11T13:42:25.421Z,1011.99
2018-01-11T13:43:25.345Z,1012.00
2018-01-11T13:44:25.261Z,1012.01
2018-01-11T13:45:25.185Z,1012.00
2018-01-11T13:46:25.100Z,1012.01
2018-01-11T13:47:25.024Z,1012.07
2018-01-11T13:48:24.980Z,1012.07
2018-01-11T13:49:24.868Z,1012.05
2018-01-11T13:50:24.795Z,1012.06
2018-01-11T13:51:24.718Z,1012.08
2018-01-11T13:52:24.637Z,1012.12
2018-01-11T13:53:24.554Z,1012.12
2018-01-11T13:54:24.486Z,1012.13
2018-01-11T13:55:24.397Z,1012.14
2018-01-11T13:56:24.323Z,1012.14
2018-01-11T13:57:24.252Z,1012.14
2018-01-11T13:58:24.168Z,1012.19
2018-01-11T13:59:24.118Z,1012.23
2018-01-11T14:00:24.006Z,1012.21
2018-01-11T14:01:23.928Z,1012.22
2018-01-11T14:02:23.850Z,1012.25
2018-01-11T14:03:23.773Z,1012.22
2018-01-11T14:04:23.695Z,1012.25
2018-01-11T14:05:23.626Z,1012.24
2018-01-11T14:06:23.544Z,1012.24
2018-01-11T14:07:23.465Z,1012.26
2018-01-11T14:08:23.384Z,1012.24
2018-01-11T14:09:23.311Z,1012.27
2018-01-11T14:10:23.263Z,1012.26
2018-01-11T14:11:23.148Z,1012.22
2018-01-11T14:12:23.074Z,1012.25
2018-01-11T14:13:22.987Z,1012.21
2018-01-11T14:14:22.912Z,1012.28
2018-01-11T14:15:22.839Z,1012.30
2018-01-11T14:16:22.773Z,1012.32
2018-01-11T14:17:22.741Z,1012.32
2018-01-11T14:18:22.595Z,1012.32
2018-01-11T14:19:22.521Z,1012.32
2018-01-11T14:20:22.437Z,1012.33
2018-01-11T14:21:22.391Z,1012.38
2018-01-11T14:22:22.281Z,1012.35
2018-01-11T14:23:22.220Z,1012.41
2018-01-11T14:24:22.118Z,1012.33
2018-01-11T14:25:22.050Z,1012.36
2018-01-11T14:26:21.985Z,1012.40
2018-01-11T14:27:21.895Z,1012.43
2018-01-11T14:28:21.814Z,1012.43
2018-01-11T14:29:21.734Z,1012.44
2018-01-11T14:30:21.656Z,1012.44
2018-01-11T14:31:21.577Z,1012.45
2018-01-11T14:32:21.523Z,1012.45
2018-01-11T14:33:21.419Z,1012.45
2018-01-11T14:34:21.333Z,1012.49
2018-01-11T14:35:21.251Z,1012.48
2018-01-11T14:36:21.182Z,1012.51
2018-01-11T14:37:21.102Z,1012.52
2018-01-11T14:38:21.019Z,1012.53
2018-01-11T14:39:20.939Z,1012.58
2018-01-11T14:40:20.863Z,1012.58
2018-01-11T14:41:20.780Z,1012.63
2018-01-11T14:42:20.708Z,1012.62
2018-01-11T14:43:20.660Z,1012.66
2018-01-11T14:44:20.608Z,1012.66
2018-01-11T14:45:20.497Z,1012.69
2018-01-11T14:46:20.388Z,1012.69
2018-01-11T14:47:20.314Z,1012.70
2018-01-11T14:48:20.236Z,1012.74
2018-01-11T14:49:20.146Z,1012.77
2018-01-11T14:50:20.067Z,1012.78
2018-01-11T14:51:20.007Z,1012.73
2018-01-11T14:52:19.919Z,1012.76
2018-01-11T14:53:19.833Z,1012.77
2018-01-11T14:54:19.789Z,1012.78
2018-01-11T14:55:19.673Z,1012.84
2018-01-11T14:56:19.602Z,1012.79
2018-01-11T14:57:19.515Z,1012.79
2018-01-11T14:58:19.461Z,1012.77
2018-01-11T14:59:19.364Z,1012.79
2018-01-11T15:00:19.285Z,1012.86
2018-01-11T15:01:19.206Z,1012.86
2018-01-11T15:02:19.132Z,1012.86
2018-01-11T15:03:19.048Z,1012.86
2018-01-11T15:04:18.965Z,1012.85
2018-01-11T15:05:18.910Z,1012.86
2018-01-11T15:06:18.808Z,1012.88
2018-01-11T15:07:18.731Z,1012.91
2018-01-11T15:08:18.645Z,1012.89
2018-01-11T15:09:18.568Z,1012.91
2018-01-11T15:10:18.524Z,1012.91
2018-01-11T15:11:18.408Z,1012.89
2018-01-11T15:12:18.339Z,1012.90
2018-01-11T15:13:18.259Z,1012.94
2018-01-11T15:14:18.177Z,1012.95
2018-01-11T15:15:18.095Z,1012.98
2018-01-11T15:16:18.080Z,1012.89
2018-01-11T15:17:17.943Z,1012.94
2018-01-11T15:18:17.868Z,1012.97
2018-01-11T15:19:17.780Z,1013.00
2018-01-11T15:20:17.705Z,1013.00
2018-01-11T15:21:17.649Z,1013.03
2018-01-11T15:22:17.539Z,1013.04
2018-01-11T15:23:17.464Z,1013.06
2018-01-11T15:24:17.381Z,1013.07
2018-01-11T15:25:17.308Z,1013.11
2018-01-11T15:26:17.251Z,1013.12
2018-01-11T15:27:17.215Z,1013.15
2018-01-11T15:28:17.068Z,1013.12
2018-01-11T15:29:16.990Z,1013.16
2018-01-11T15:30:16.903Z,1013.11
2018-01-11T15:31:16.836Z,1013.15
2018-01-11T15:32:16.753Z,1013.14
2018-01-11T15:33:16.675Z,1013.17
2018-01-11T15:34:16.596Z,1013.17
2018-01-11T15:35:16.513Z,1013.20
2018-01-11T15:36:16.430Z,1013.18
2018-01-11T15:37:16.387Z,1013.20
2018-01-11T15:38:16.270Z,1013.18
2018-01-11T15:39:16.189Z,1013.20
2018-01-11T15:40:16.176Z,1013.20
2018-01-11T15:41:16.054Z,1013.21
2018-01-11T15:42:15.958Z,1013.23
2018-01-11T15:43:15.880Z,1013.23
2018-01-11T15:44:15.797Z,1013.24
2018-01-11T15:45:15.716Z,1013.24
2018-01-11T15:46:15.644Z,1013.25
2018-01-11T15:47:15.560Z,1013.22
2018-01-11T15:48:15.506Z,1013.29
2018-01-11T15:49:15.398Z,1013.30
2018-01-11T15:50:15.326Z,1013.30
2018-01-11T15:51:15.238Z,1013.35
2018-01-11T15:52:15.179Z,1013.37
2018-01-11T15:53:15.112Z,1013.39
2018-01-11T15:54:15.006Z,1013.37
2018-01-11T15:55:14.927Z,1013.38
2018-01-11T15:56:14.842Z,1013.39
2018-01-11T15:57:14.771Z,1013.40
2018-01-11T15:58:14.709Z,1013.44
2018-01-11T15:59:14.613Z,1013.46
2018-01-11T16:00:14.525Z,1013.44
2018-01-11T16:01:14.450Z,1013.44
2018-01-11T16:02:14.368Z,1013.50
2018-01-11T16:03:14.288Z,1013.52
2018-01-11T16:04:14.236Z,1013.51
2018-01-11T16:05:14.131Z,1013.51